createdAt,value
2022-11-16T00:00:05.599Z,953.00
2022-11-16T00:00:33.661Z,953.00
2022-11-16T00:01:06.184Z,954.00
2022-11-16T00:01:38.774Z,956.00
2022-11-16T00:02:08.836Z,956.00
2022-11-16T00:02:38.907Z,959.00
2022-11-16T00:03:08.959Z,957.00
2022-11-16T00:03:41.465Z,955.00
2022-11-16T00:04:13.983Z,957.00
2022-11-16T00:04:46.494Z,958.00
2022-11-16T00:05:20.362Z,959.00
2022-11-16T00:05:50.554Z,959.00
2022-11-16T00:06:20.506Z,960.00
2022-11-16T00:06:53.118Z,963.00
2022-11-16T00:07:23.163Z,964.00
2022-11-16T00:07:53.103Z,966.00
2022-11-16T00:08:25.628Z,967.00
2022-11-16T00:08:58.109Z,969.00
2022-11-16T00:09:30.653Z,971.00
2022-11-16T00:10:03.172Z,971.00
2022-11-16T00:10:35.687Z,970.00
2022-11-16T00:11:08.242Z,971.00
2022-11-16T00:11:38.244Z,970.00
2022-11-16T00:12:10.764Z,970.00
2022-11-16T00:12:43.269Z,975.00
2022-11-16T00:13:15.790Z,978.00
2022-11-16T00:13:48.297Z,975.00
2022-11-16T00:14:20.862Z,977.00
2022-11-16T00:14:50.860Z,981.00
2022-11-16T00:15:20.832Z,983.00
2022-11-16T00:15:53.327Z,986.00
2022-11-16T00:16:25.851Z,987.00
2022-11-16T00:16:58.352Z,987.00
2022-11-16T00:17:30.871Z,988.00
2022-11-16T00:18:03.366Z,987.00
2022-11-16T00:18:36.099Z,987.00
2022-11-16T00:19:06.254Z,991.00
2022-11-16T00:19:36.254Z,991.00
2022-11-16T00:20:08.769Z,990.00
2022-11-16T00:20:41.279Z,991.00
2022-11-16T00:21:13.811Z,992.00
2022-11-16T00:21:46.304Z,994.00
2022-11-16T00:22:18.817Z,995.00
2022-11-16T00:22:51.328Z,992.00
2022-11-16T00:23:23.847Z,989.00
2022-11-16T00:23:56.353Z,989.00
2022-11-16T00:24:28.874Z,989.00
2022-11-16T00:25:01.380Z,989.00
2022-11-16T00:25:33.898Z,991.00
2022-11-16T00:26:06.404Z,993.00
2022-11-16T00:26:38.923Z,994.00
2022-11-16T00:27:11.429Z,995.00
2022-11-16T00:27:43.949Z,999.00
2022-11-16T00:28:16.453Z,997.00
2022-11-16T00:28:48.967Z,997.00
2022-11-16T00:29:21.479Z,999.00
2022-11-16T00:29:54.040Z,1000.00
2022-11-16T00:30:24.009Z,1004.00
2022-11-16T00:30:56.524Z,1005.00
2022-11-16T00:31:29.035Z,1008.00
2022-11-16T00:32:01.531Z,1009.00
2022-11-16T00:32:34.052Z,1010.00
2022-11-16T00:33:06.556Z,1013.00
2022-11-16T00:33:39.073Z,1014.00
2022-11-16T00:34:11.581Z,1014.00
2022-11-16T00:34:44.101Z,1013.00
2022-11-16T00:35:16.620Z,1012.00
2022-11-16T00:35:49.134Z,1015.00
2022-11-16T00:36:21.629Z,1015.00
2022-11-16T00:36:54.152Z,1014.00
2022-11-16T00:37:26.656Z,1012.00
2022-11-16T00:37:59.218Z,1013.00
2022-11-16T00:38:29.223Z,1015.00
2022-11-16T00:39:01.748Z,1016.00
2022-11-16T00:39:34.247Z,1017.00
2022-11-16T00:40:06.779Z,1018.00
2022-11-16T00:40:39.304Z,1017.00
2022-11-16T00:41:11.840Z,1020.00
2022-11-16T00:41:44.397Z,1020.00
2022-11-16T00:42:14.370Z,1021.00
2022-11-16T00:42:46.870Z,1023.00
2022-11-16T00:43:19.425Z,1024.00
2022-11-16T00:43:49.430Z,1022.00
2022-11-16T00:44:19.434Z,1022.00
2022-11-16T00:44:51.966Z,1023.00
2022-11-16T00:45:24.468Z,1025.00
2022-11-16T00:45:56.992Z,1025.00
2022-11-16T00:46:29.490Z,1027.00
2022-11-16T00:47:02.046Z,1029.00
2022-11-16T00:47:32.052Z,1030.00
2022-11-16T00:48:04.572Z,1030.00
2022-11-16T00:48:37.155Z,1031.00
2022-11-16T00:49:07.138Z,1030.00
2022-11-16T00:49:39.642Z,1033.00
2022-11-16T00:50:12.167Z,1029.00
2022-11-16T00:50:44.666Z,1031.00
2022-11-16T00:51:17.187Z,1033.00
2022-11-16T00:51:49.695Z,1035.00
2022-11-16T00:52:22.210Z,1036.00
2022-11-16T00:52:54.718Z,1035.00
2022-11-16T00:53:27.242Z,1038.00
2022-11-16T00:53:59.760Z,1043.00
2022-11-16T00:54:32.304Z,1043.00
2022-11-16T00:55:02.308Z,1046.00
2022-11-16T00:55:32.269Z,1047.00
2022-11-16T00:56:04.773Z,1048.00
2022-11-16T00:56:37.294Z,1049.00
2022-11-16T00:57:09.799Z,1048.00
2022-11-16T00:57:42.364Z,1049.00
2022-11-16T00:58:12.364Z,1047.00
2022-11-16T00:58:44.929Z,1046.00
2022-11-16T00:59:14.935Z,1045.00
2022-11-16T00:59:44.937Z,1043.00
2022-11-16T01:00:14.896Z,1041.00
2022-11-16T01:00:47.401Z,1042.00
2022-11-16T01:01:19.993Z,1045.00
2022-11-16T01:01:49.990Z,1045.00
2022-11-16T01:02:22.489Z,1043.00
2022-11-16T01:02:54.994Z,1044.00
2022-11-16T01:03:27.514Z,1044.00
2022-11-16T01:04:00.031Z,1046.00
2022-11-16T01:04:32.580Z,1051.00
2022-11-16T01:05:02.584Z,1052.00
2022-11-16T01:05:32.555Z,1054.00
2022-11-16T01:06:05.054Z,1055.00
2022-11-16T01:06:37.612Z,1054.00
2022-11-16T01:07:07.604Z,1053.00
2022-11-16T01:07:40.133Z,1053.00
2022-11-16T01:08:12.644Z,1052.00
2022-11-16T01:08:45.162Z,1051.00
2022-11-16T01:09:17.684Z,1051.00
2022-11-16T01:09:50.187Z,1052.00
2022-11-16T01:10:22.688Z,1053.00
2022-11-16T01:10:55.207Z,1055.00
2022-11-16T01:11:25.260Z,1055.00
2022-11-16T01:11:55.365Z,1055.00
2022-11-16T01:12:27.929Z,1058.00
2022-11-16T01:12:57.894Z,1059.00
2022-11-16T01:13:30.396Z,1060.00
2022-11-16T01:14:02.957Z,1060.00
2022-11-16T01:14:32.962Z,1060.00
2022-11-16T01:15:02.929Z,1063.00
2022-11-16T01:15:35.428Z,1064.00
2022-11-16T01:16:07.954Z,1065.00
2022-11-16T01:16:40.449Z,1066.00
2022-11-16T01:17:12.968Z,1067.00
2022-11-16T01:17:45.473Z,1068.00
2022-11-16T01:18:18.037Z,1070.00
2022-11-16T01:18:48.049Z,1070.00
2022-11-16T01:19:20.605Z,1074.00
2022-11-16T01:19:50.608Z,1075.00
2022-11-16T01:20:23.128Z,1074.00
2022-11-16T01:20:55.649Z,1077.00
2022-11-16T01:21:28.199Z,1076.00
2022-11-16T01:21:58.200Z,1074.00
2022-11-16T01:22:28.202Z,1074.00
2022-11-16T01:23:00.730Z,1075.00
2022-11-16T01:23:33.230Z,1077.00
2022-11-16T01:24:05.755Z,1079.00
2022-11-16T01:24:38.256Z,1079.00
2022-11-16T01:25:10.815Z,1081.00
2022-11-16T01:25:40.821Z,1081.00
2022-11-16T01:26:10.829Z,1079.00
2022-11-16T01:26:43.386Z,1078.00
2022-11-16T01:27:13.390Z,1076.00
2022-11-16T01:27:43.401Z,1075.00
2022-11-16T01:28:13.398Z,1076.00
2022-11-16T01:28:45.964Z,1076.00
2022-11-16T01:29:15.920Z,1076.00
2022-11-16T01:29:48.426Z,1079.00
2022-11-16T01:30:20.956Z,1078.00
2022-11-16T01:30:53.455Z,1076.00
2022-11-16T01:31:26.014Z,1075.00
2022-11-16T01:31:56.022Z,1071.00
2022-11-16T01:32:25.980Z,1070.00
2022-11-16T01:32:58.484Z,1070.00
2022-11-16T01:33:31.004Z,1068.00
2022-11-16T01:34:03.508Z,1071.00
2022-11-16T01:34:36.030Z,1070.00
2022-11-16T01:35:08.532Z,1070.00
2022-11-16T01:35:41.053Z,1072.00
2022-11-16T01:36:13.561Z,1073.00
2022-11-16T01:36:46.146Z,1075.00
2022-11-16T01:37:16.094Z,1075.00
2022-11-16T01:37:48.590Z,1074.00
2022-11-16T01:38:23.886Z,1075.00
2022-11-16T01:38:53.412Z,1076.00
2022-11-16T01:39:25.927Z,1077.00
2022-11-16T01:39:58.430Z,1078.00
2022-11-16T01:40:30.949Z,1078.00
2022-11-16T01:41:03.455Z,1080.00
2022-11-16T01:41:35.987Z,1079.00
2022-11-16T01:42:08.532Z,1081.00
2022-11-16T01:42:38.491Z,1083.00
2022-11-16T01:43:11.006Z,1086.00
2022-11-16T01:43:43.510Z,1086.00
2022-11-16T01:44:16.029Z,1088.00
2022-11-16T01:44:48.530Z,1092.00
2022-11-16T01:45:21.052Z,1093.00
2022-11-16T01:45:53.554Z,1095.00
2022-11-16T01:46:26.085Z,1099.00
2022-11-16T01:46:58.587Z,1101.00
2022-11-16T01:47:31.146Z,1103.00
2022-11-16T01:48:01.180Z,1103.00
2022-11-16T01:48:31.516Z,1102.00
2022-11-16T01:49:01.670Z,1102.00
2022-11-16T01:49:34.190Z,1104.00
2022-11-16T01:50:06.699Z,1103.00
2022-11-16T01:50:39.220Z,1103.00
2022-11-16T01:51:11.721Z,1103.00
2022-11-16T01:51:44.284Z,1104.00
2022-11-16T01:52:14.288Z,1105.00
2022-11-16T01:52:44.290Z,1106.00
2022-11-16T01:53:14.294Z,1106.00
2022-11-16T01:53:44.297Z,1107.00
2022-11-16T01:54:16.827Z,1108.00
2022-11-16T01:54:49.326Z,1111.00
2022-11-16T01:55:21.849Z,1113.00
2022-11-16T01:55:54.347Z,1114.00
2022-11-16T01:56:26.917Z,1115.00
2022-11-16T01:56:56.913Z,1119.00
2022-11-16T01:57:29.476Z,1119.00
2022-11-16T01:57:59.453Z,1120.00
2022-11-16T01:58:32.377Z,1121.00
2022-11-16T01:59:02.614Z,1121.00
2022-11-16T01:59:35.124Z,1122.00
2022-11-16T02:00:07.643Z,1125.00
2022-11-16T02:00:40.155Z,1132.00
2022-11-16T02:01:12.724Z,1134.00
2022-11-16T02:01:42.794Z,1134.00
2022-11-16T02:02:12.821Z,1136.00
2022-11-16T02:02:42.790Z,1138.00
2022-11-16T02:03:15.347Z,1138.00
2022-11-16T02:03:45.308Z,1142.00
2022-11-16T02:04:17.822Z,1145.00
2022-11-16T02:04:50.320Z,1146.00
2022-11-16T02:05:22.877Z,1148.00
2022-11-16T02:05:52.846Z,1148.00
2022-11-16T02:06:25.342Z,1145.00
2022-11-16T02:06:57.906Z,1141.00
2022-11-16T02:07:27.972Z,1141.00
2022-11-16T02:07:57.932Z,1141.00
2022-11-16T02:08:30.749Z,1143.00
2022-11-16T02:09:00.992Z,1146.00
2022-11-16T02:09:30.997Z,1149.00
2022-11-16T02:10:00.999Z,1149.00
2022-11-16T02:10:33.518Z,1151.00
2022-11-16T02:11:06.020Z,1152.00
2022-11-16T02:11:38.544Z,1152.00
2022-11-16T02:12:11.049Z,1153.00
2022-11-16T02:12:43.566Z,1154.00
2022-11-16T02:13:16.074Z,1155.00
2022-11-16T02:13:51.182Z,1157.00
2022-11-16T02:14:18.948Z,1156.00
2022-11-16T02:14:51.511Z,1157.00
2022-11-16T02:15:21.516Z,1157.00
2022-11-16T02:15:51.517Z,1156.00
2022-11-16T02:16:21.524Z,1157.00
2022-11-16T02:16:51.526Z,1160.00
2022-11-16T02:17:24.087Z,1159.00
2022-11-16T02:17:54.052Z,1155.00
2022-11-16T02:18:26.555Z,1158.00
2022-11-16T02:18:59.073Z,1160.00
2022-11-16T02:19:31.579Z,1160.00
2022-11-16T02:20:04.142Z,1162.00
2022-11-16T02:20:36.662Z,1160.00
2022-11-16T02:21:09.185Z,1161.00
2022-11-16T02:21:41.738Z,1162.00
2022-11-16T02:22:11.732Z,1163.00
2022-11-16T02:22:41.739Z,1162.00
2022-11-16T02:23:11.711Z,1164.00
2022-11-16T02:23:44.208Z,1165.00
2022-11-16T02:24:16.766Z,1163.00
2022-11-16T02:24:46.771Z,1161.00
2022-11-16T02:25:16.773Z,1160.00
2022-11-16T02:25:49.336Z,1159.00
2022-11-16T02:26:19.338Z,1158.00
2022-11-16T02:26:51.862Z,1159.00
2022-11-16T02:27:24.365Z,1159.00
2022-11-16T02:27:56.887Z,1162.00
2022-11-16T02:28:29.397Z,1162.00
2022-11-16T02:29:01.921Z,1162.00
2022-11-16T02:29:34.420Z,1163.00
2022-11-16T02:30:06.983Z,1163.00
2022-11-16T02:30:36.981Z,1162.00
2022-11-16T02:31:09.545Z,1159.00
2022-11-16T02:31:39.548Z,1158.00
2022-11-16T02:32:12.118Z,1159.00
2022-11-16T02:32:42.081Z,1159.00
2022-11-16T02:33:14.577Z,1160.00
2022-11-16T02:33:47.141Z,1160.00
2022-11-16T02:34:17.112Z,1161.00
2022-11-16T02:34:49.614Z,1160.00
2022-11-16T02:35:22.167Z,1162.00
2022-11-16T02:35:52.137Z,1163.00
2022-11-16T02:36:24.634Z,1165.00
2022-11-16T02:36:57.199Z,1164.00
2022-11-16T02:37:27.238Z,1167.00
2022-11-16T02:37:57.204Z,1168.00
2022-11-16T02:38:29.735Z,1167.00
2022-11-16T02:39:02.239Z,1171.00
2022-11-16T02:39:34.791Z,1172.00
2022-11-16T02:40:04.767Z,1172.00
2022-11-16T02:40:37.263Z,1173.00
2022-11-16T02:41:09.822Z,1173.00
2022-11-16T02:41:39.824Z,1172.00
2022-11-16T02:42:12.350Z,1172.00
2022-11-16T02:42:44.849Z,1173.00
2022-11-16T02:43:17.413Z,1175.00
2022-11-16T02:43:47.416Z,1176.00
2022-11-16T02:44:19.938Z,1176.00
2022-11-16T02:44:52.441Z,1181.00
2022-11-16T02:45:25.003Z,1182.00
2022-11-16T02:45:54.967Z,1183.00
2022-11-16T02:46:27.474Z,1183.00
2022-11-16T02:48:02.118Z,1187.00
2022-11-16T02:48:34.990Z,1180.00
2022-11-16T02:49:05.147Z,1181.00
2022-11-16T02:49:35.173Z,1182.00
2022-11-16T02:50:07.677Z,1180.00
2022-11-16T02:50:40.201Z,1178.00
2022-11-16T02:51:12.702Z,1177.00
2022-11-16T02:51:45.200Z,1181.00
2022-11-16T02:52:17.704Z,1182.00
2022-11-16T02:52:50.200Z,1183.00
2022-11-16T02:53:22.721Z,1184.00
2022-11-16T02:53:55.225Z,1187.00
2022-11-16T02:54:27.720Z,1186.00
2022-11-16T02:55:00.218Z,1185.00
2022-11-16T02:55:32.720Z,1183.00
2022-11-16T02:56:05.228Z,1183.00
2022-11-16T02:56:37.724Z,1183.00
2022-11-16T02:57:10.221Z,1186.00
2022-11-16T02:57:42.725Z,1187.00
2022-11-16T02:58:15.253Z,1186.00
2022-11-16T02:58:47.753Z,1186.00
2022-11-16T02:59:20.255Z,1187.00
2022-11-16T02:59:52.752Z,1188.00
2022-11-16T03:00:25.249Z,1189.00
2022-11-16T03:00:57.823Z,1190.00
2022-11-16T03:01:27.923Z,1190.00
2022-11-16T03:01:57.875Z,1191.00
2022-11-16T03:02:30.395Z,1194.00
2022-11-16T03:03:02.889Z,1195.00
2022-11-16T03:03:35.406Z,1193.00
2022-11-16T03:04:07.921Z,1195.00
2022-11-16T03:04:40.419Z,1195.00
2022-11-16T03:05:12.917Z,1197.00
2022-11-16T03:05:45.416Z,1196.00
2022-11-16T03:06:17.918Z,1197.00
2022-11-16T03:06:50.450Z,1198.00
2022-11-16T03:07:23.108Z,1202.00
2022-11-16T03:07:53.094Z,1205.00
2022-11-16T03:08:25.597Z,1206.00
2022-11-16T03:08:58.112Z,1208.00
2022-11-16T03:09:30.635Z,1212.00
2022-11-16T03:10:03.130Z,1212.00
2022-11-16T03:10:35.634Z,1212.00
2022-11-16T03:11:08.130Z,1218.00
2022-11-16T03:11:40.647Z,1218.00
2022-11-16T03:12:13.129Z,1220.00
2022-11-16T03:12:45.653Z,1223.00
2022-11-16T03:13:18.146Z,1225.00
2022-11-16T03:13:50.668Z,1225.00
2022-11-16T03:14:23.164Z,1226.00
2022-11-16T03:14:55.663Z,1227.00
2022-11-16T03:15:28.164Z,1226.00
2022-11-16T03:16:00.661Z,1228.00
2022-11-16T03:16:33.174Z,1229.00
2022-11-16T03:17:05.673Z,1231.00
2022-11-16T03:17:38.167Z,1235.00
2022-11-16T03:18:10.693Z,1234.00
2022-11-16T03:18:43.188Z,1236.00
2022-11-16T03:19:15.710Z,1236.00
2022-11-16T03:19:48.221Z,1236.00
2022-11-16T03:20:20.728Z,1239.00
2022-11-16T03:20:53.236Z,1240.00
2022-11-16T03:21:25.742Z,1243.00
2022-11-16T03:21:58.241Z,1244.00
2022-11-16T03:22:30.744Z,1246.00
2022-11-16T03:23:03.261Z,1249.00
2022-11-16T03:23:35.776Z,1250.00
2022-11-16T03:24:08.270Z,1250.00
2022-11-16T03:24:40.776Z,1251.00
2022-11-16T03:25:13.370Z,1251.00
2022-11-16T03:25:43.327Z,1248.00
2022-11-16T03:26:15.827Z,1247.00
2022-11-16T03:26:48.391Z,1248.00
2022-11-16T03:27:20.889Z,1249.00
2022-11-16T03:27:53.391Z,1250.00
2022-11-16T03:28:25.888Z,1251.00
2022-11-16T03:28:58.388Z,1250.00
2022-11-16T03:29:30.887Z,1250.00
2022-11-16T03:30:03.432Z,1251.00
2022-11-16T03:30:35.946Z,1251.00
2022-11-16T03:31:08.445Z,1252.00
2022-11-16T03:31:40.942Z,1255.00
2022-11-16T03:32:13.472Z,1256.00
2022-11-16T03:32:46.010Z,1257.00
2022-11-16T03:33:18.537Z,1258.00
2022-11-16T03:33:51.041Z,1259.00
2022-11-16T03:34:23.546Z,1259.00
2022-11-16T03:34:56.046Z,1259.00
2022-11-16T03:35:28.542Z,1258.00
2022-11-16T03:36:01.045Z,1257.00
2022-11-16T03:36:33.566Z,1258.00
2022-11-16T03:37:06.084Z,1259.00
2022-11-16T03:37:38.585Z,1262.00
2022-11-16T03:38:11.085Z,1263.00
2022-11-16T03:38:43.594Z,1266.00
2022-11-16T03:39:16.091Z,1268.00
2022-11-16T03:39:48.595Z,1269.00
2022-11-16T03:40:21.094Z,1273.00
2022-11-16T03:40:53.595Z,1277.00
2022-11-16T03:41:26.096Z,1279.00
2022-11-16T03:41:58.594Z,1280.00
2022-11-16T03:42:31.110Z,1284.00
2022-11-16T03:43:03.665Z,1285.00
2022-11-16T03:43:36.150Z,1286.00
2022-11-16T03:44:08.650Z,1287.00
2022-11-16T03:44:41.179Z,1288.00
2022-11-16T03:45:13.679Z,1289.00
2022-11-16T03:45:46.180Z,1289.00
2022-11-16T03:46:18.712Z,1289.00
2022-11-16T03:46:51.212Z,1291.00
2022-11-16T03:47:23.729Z,1290.00
2022-11-16T03:47:56.227Z,1292.00
2022-11-16T03:48:28.727Z,1292.00
2022-11-16T03:49:01.258Z,1291.00
2022-11-16T03:49:33.772Z,1292.00
2022-11-16T03:50:06.272Z,1295.00
2022-11-16T03:50:38.774Z,1297.00
2022-11-16T03:51:11.272Z,1299.00
2022-11-16T03:51:43.819Z,1302.00
2022-11-16T03:52:16.315Z,1303.00
2022-11-16T03:52:48.837Z,1305.00
2022-11-16T03:53:21.339Z,1306.00
2022-11-16T03:53:53.847Z,1305.00
2022-11-16T03:54:26.345Z,1305.00
2022-11-16T03:54:58.873Z,1306.00
2022-11-16T03:55:31.373Z,1309.00
2022-11-16T03:56:03.878Z,1314.00
2022-11-16T03:56:36.383Z,1318.00
2022-11-16T03:57:08.886Z,1320.00
2022-11-16T03:57:41.386Z,1325.00
2022-11-16T03:58:13.903Z,1325.00
2022-11-16T03:58:46.401Z,1323.00
2022-11-16T03:59:18.907Z,1325.00
2022-11-16T03:59:51.427Z,1329.00
2022-11-16T04:00:23.942Z,1328.00
2022-11-16T04:00:56.523Z,1328.00
2022-11-16T04:01:26.574Z,1327.00
2022-11-16T04:01:56.534Z,1330.00
2022-11-16T04:02:29.044Z,1333.00
2022-11-16T04:03:01.575Z,1334.00
2022-11-16T04:03:34.120Z,1332.00
2022-11-16T04:04:04.260Z,1332.00
2022-11-16T04:04:36.758Z,1333.00
2022-11-16T04:05:09.260Z,1331.00
2022-11-16T04:05:41.768Z,1332.00
2022-11-16T04:06:14.275Z,1331.00
2022-11-16T04:06:46.989Z,1332.00
2022-11-16T04:07:17.078Z,1332.00
2022-11-16T04:07:47.050Z,1331.00
2022-11-16T04:08:19.575Z,1334.00
2022-11-16T04:08:52.083Z,1337.00
2022-11-16T04:09:24.595Z,1336.00
2022-11-16T04:09:57.087Z,1336.00
2022-11-16T04:10:29.586Z,1336.00
2022-11-16T04:11:02.086Z,1337.00
2022-11-16T04:11:34.605Z,1337.00
2022-11-16T04:12:07.103Z,1339.00
2022-11-16T04:12:39.601Z,1339.00
2022-11-16T04:13:12.097Z,1339.00
2022-11-16T04:13:44.615Z,1342.00
2022-11-16T04:14:17.114Z,1342.00
2022-11-16T04:14:49.612Z,1343.00
2022-11-16T04:15:22.110Z,1347.00
2022-11-16T04:15:54.610Z,1348.00
2022-11-16T04:16:27.135Z,1351.00
2022-11-16T04:16:59.632Z,1355.00
2022-11-16T04:17:32.149Z,1359.00
2022-11-16T04:18:04.642Z,1361.00
2022-11-16T04:18:37.387Z,1358.00
2022-11-16T04:19:07.378Z,1360.00
2022-11-16T04:19:39.883Z,1363.00
2022-11-16T04:20:12.403Z,1364.00
2022-11-16T04:20:44.899Z,1361.00
2022-11-16T04:21:17.417Z,1360.00
2022-11-16T04:21:49.915Z,1359.00
2022-11-16T04:22:22.414Z,1360.00
2022-11-16T04:22:54.911Z,1360.00
2022-11-16T04:23:27.414Z,1361.00
2022-11-16T04:23:59.936Z,1363.00
2022-11-16T04:24:32.458Z,1366.00
2022-11-16T04:25:04.959Z,1368.00
2022-11-16T04:25:37.461Z,1370.00
2022-11-16T04:26:09.962Z,1369.00
2022-11-16T04:26:42.459Z,1366.00
2022-11-16T04:27:14.958Z,1370.00
2022-11-16T04:27:47.484Z,1372.00
2022-11-16T04:28:19.986Z,1371.00
2022-11-16T04:28:52.487Z,1373.00
2022-11-16T04:29:24.986Z,1375.00
2022-11-16T04:29:57.507Z,1377.00
2022-11-16T04:30:30.006Z,1376.00
2022-11-16T04:31:02.505Z,1377.00
2022-11-16T04:31:34.990Z,1378.00
2022-11-16T04:32:07.504Z,1378.00
2022-11-16T04:32:40.001Z,1381.00
2022-11-16T04:33:12.502Z,1385.00
2022-11-16T04:33:45.004Z,1387.00
2022-11-16T04:34:17.501Z,1386.00
2022-11-16T04:34:50.030Z,1387.00
2022-11-16T04:35:22.533Z,1387.00
2022-11-16T04:35:55.032Z,1391.00
2022-11-16T04:36:27.534Z,1393.00
2022-11-16T04:37:00.038Z,1393.00
2022-11-16T04:37:32.550Z,1392.00
2022-11-16T04:38:05.050Z,1392.00
2022-11-16T04:38:37.553Z,1395.00
2022-11-16T04:39:10.060Z,1399.00
2022-11-16T04:39:42.586Z,1403.00
2022-11-16T04:40:15.100Z,1406.00
2022-11-16T04:40:47.601Z,1410.00
2022-11-16T04:41:20.102Z,1411.00
2022-11-16T04:41:52.613Z,1411.00
2022-11-16T04:42:25.110Z,1414.00
2022-11-16T04:42:57.673Z,1413.00
2022-11-16T04:43:27.622Z,1413.00
2022-11-16T04:44:00.120Z,1413.00
2022-11-16T04:44:32.641Z,1415.00
2022-11-16T04:45:05.175Z,1417.00
2022-11-16T04:45:37.698Z,1418.00
2022-11-16T04:46:10.197Z,1419.00
2022-11-16T04:46:42.698Z,1420.00
2022-11-16T04:47:15.200Z,1420.00
2022-11-16T04:47:47.697Z,1420.00
2022-11-16T04:48:20.197Z,1421.00
2022-11-16T04:48:52.696Z,1423.00
2022-11-16T04:49:25.194Z,1425.00
2022-11-16T04:49:57.713Z,1427.00
2022-11-16T04:50:30.235Z,1427.00
2022-11-16T04:51:02.757Z,1430.00
2022-11-16T04:51:35.254Z,1432.00
2022-11-16T04:52:07.764Z,1429.00
2022-11-16T04:52:40.273Z,1429.00
2022-11-16T04:53:12.774Z,1430.00
2022-11-16T04:53:45.279Z,1431.00
2022-11-16T04:54:17.779Z,1436.00
2022-11-16T04:54:50.280Z,1438.00
2022-11-16T04:55:22.787Z,1439.00
2022-11-16T04:56:00.482Z,1440.00
2022-11-16T04:56:27.667Z,1437.00
2022-11-16T04:57:00.170Z,1437.00
2022-11-16T04:57:32.668Z,1438.00
2022-11-16T04:58:05.173Z,1439.00
2022-11-16T04:58:37.669Z,1438.00
2022-11-16T04:59:10.244Z,1439.00
2022-11-16T04:59:40.235Z,1440.00
2022-11-16T05:00:12.742Z,1440.00
2022-11-16T05:00:45.237Z,1440.00
2022-11-16T05:01:17.769Z,1442.00
2022-11-16T05:01:47.846Z,1444.00
2022-11-16T05:02:17.818Z,1445.00
2022-11-16T05:02:50.334Z,1441.00
2022-11-16T05:03:22.832Z,1441.00
2022-11-16T05:03:55.331Z,1440.00
2022-11-16T05:04:27.852Z,1442.00
2022-11-16T05:05:00.365Z,1444.00
2022-11-16T05:05:32.874Z,1442.00
2022-11-16T05:06:05.381Z,1441.00
2022-11-16T05:06:37.882Z,1445.00
2022-11-16T05:07:10.426Z,1443.00
2022-11-16T05:07:40.386Z,1443.00
2022-11-16T05:08:12.888Z,1444.00
2022-11-16T05:08:45.412Z,1444.00
2022-11-16T05:09:17.901Z,1438.00
2022-11-16T05:09:50.398Z,1024.00
2022-11-16T05:10:22.899Z,1006.00
2022-11-16T05:10:55.396Z,1016.00
2022-11-16T05:11:27.900Z,1029.00
2022-11-16T05:12:00.400Z,1046.00
2022-11-16T05:12:32.927Z,1211.00
2022-11-16T05:13:05.444Z,1256.00
2022-11-16T05:13:37.946Z,1264.00
2022-11-16T05:14:10.446Z,1252.00
2022-11-16T05:14:42.948Z,1264.00
2022-11-16T05:15:15.445Z,1285.00
2022-11-16T05:15:47.976Z,1296.00
2022-11-16T05:16:20.478Z,1302.00
2022-11-16T05:16:52.978Z,1303.00
2022-11-16T05:17:25.485Z,1301.00
2022-11-16T05:17:58.004Z,1298.00
2022-11-16T05:18:30.703Z,1298.00
2022-11-16T05:19:00.835Z,1299.00
2022-11-16T05:19:33.337Z,1301.00
2022-11-16T05:20:05.846Z,1303.00
2022-11-16T05:20:38.343Z,1303.00
2022-11-16T05:21:10.838Z,1306.00
2022-11-16T05:21:43.343Z,1310.00
2022-11-16T05:22:15.864Z,1310.00
2022-11-16T05:22:48.363Z,1314.00
2022-11-16T05:23:20.864Z,1316.00
2022-11-16T05:23:53.361Z,1320.00
2022-11-16T05:24:25.860Z,1324.00
2022-11-16T05:24:58.359Z,1328.00
2022-11-16T05:25:36.234Z,1332.00
2022-11-16T05:26:03.226Z,1337.00
2022-11-16T05:26:35.720Z,1339.00
2022-11-16T05:27:08.223Z,1339.00
2022-11-16T05:27:40.743Z,1337.00
2022-11-16T05:28:13.256Z,1336.00
2022-11-16T05:28:45.771Z,1335.00
2022-11-16T05:29:18.284Z,1336.00
2022-11-16T05:29:50.783Z,1338.00
2022-11-16T05:30:23.283Z,1343.00
2022-11-16T05:30:55.789Z,1342.00
2022-11-16T05:31:28.291Z,1343.00
2022-11-16T05:32:00.785Z,1343.00
2022-11-16T05:32:33.389Z,1347.00
2022-11-16T05:33:03.346Z,1349.00
2022-11-16T05:33:35.851Z,1353.00
2022-11-16T05:34:08.374Z,1355.00
2022-11-16T05:34:40.876Z,1354.00
2022-11-16T05:35:13.376Z,1354.00
2022-11-16T05:35:45.871Z,1357.00
2022-11-16T05:36:18.389Z,1358.00
2022-11-16T05:36:50.881Z,1359.00
2022-11-16T05:37:23.384Z,1357.00
2022-11-16T05:37:55.881Z,1357.00
2022-11-16T05:38:28.382Z,1356.00
2022-11-16T05:39:00.885Z,1354.00
2022-11-16T05:39:33.414Z,1355.00
2022-11-16T05:40:05.908Z,1353.00
2022-11-16T05:40:38.412Z,1355.00
2022-11-16T05:41:10.911Z,1355.00
2022-11-16T05:41:43.428Z,1354.00
2022-11-16T05:42:15.929Z,1354.00
2022-11-16T05:42:48.446Z,1355.00
2022-11-16T05:43:20.994Z,1354.00
2022-11-16T05:43:53.496Z,1353.00
2022-11-16T05:44:25.985Z,1357.00
2022-11-16T05:44:58.505Z,1359.00
2022-11-16T05:45:31.024Z,1361.00
2022-11-16T05:46:03.521Z,1361.00
2022-11-16T05:46:36.016Z,1362.00
2022-11-16T05:47:08.514Z,1361.00
2022-11-16T05:47:41.014Z,1365.00
2022-11-16T05:48:13.525Z,1370.00
2022-11-16T05:48:46.024Z,1374.00
2022-11-16T05:49:18.535Z,1371.00
2022-11-16T05:49:51.038Z,1065.00
2022-11-16T05:50:23.533Z,702.00
2022-11-16T05:50:56.055Z,524.00
2022-11-16T05:51:28.548Z,584.00
2022-11-16T05:52:01.040Z,603.00
2022-11-16T05:52:33.548Z,602.00
2022-11-16T05:53:06.042Z,604.00
2022-11-16T05:53:38.529Z,597.00
2022-11-16T05:54:11.022Z,590.00
2022-11-16T05:54:43.517Z,583.00
2022-11-16T05:55:16.005Z,560.00
2022-11-16T05:55:48.596Z,529.00
2022-11-16T05:56:18.674Z,529.00
2022-11-16T05:56:48.640Z,532.00
2022-11-16T05:57:21.134Z,533.00
2022-11-16T05:57:53.623Z,532.00
2022-11-16T05:58:26.118Z,534.00
2022-11-16T05:58:58.604Z,532.00
2022-11-16T05:59:31.102Z,530.00
2022-11-16T06:00:03.591Z,532.00
2022-11-16T06:00:36.083Z,532.00
2022-11-16T06:01:08.608Z,532.00
2022-11-16T06:01:41.095Z,535.00
2022-11-16T06:02:13.586Z,535.00
2022-11-16T06:02:46.176Z,538.00
2022-11-16T06:03:16.213Z,539.00
2022-11-16T06:03:48.683Z,541.00
2022-11-16T06:04:26.454Z,544.00
2022-11-16T06:04:51.332Z,545.00
2022-11-16T06:05:23.859Z,546.00
2022-11-16T06:05:56.355Z,549.00
2022-11-16T06:06:28.872Z,553.00
2022-11-16T06:07:01.453Z,557.00
2022-11-16T06:07:31.558Z,560.00
2022-11-16T06:08:01.519Z,569.00
2022-11-16T06:08:34.422Z,579.00
2022-11-16T06:09:04.582Z,583.00
2022-11-16T06:09:37.095Z,587.00
2022-11-16T06:10:09.589Z,591.00
2022-11-16T06:10:42.078Z,596.00
2022-11-16T06:11:14.572Z,608.00
2022-11-16T06:11:47.077Z,654.00
2022-11-16T06:12:19.583Z,667.00
2022-11-16T06:12:50.046Z,668.00
2022-11-16T06:13:22.541Z,677.00
2022-11-16T06:13:55.033Z,685.00
2022-11-16T06:14:27.527Z,689.00
2022-11-16T06:15:00.016Z,691.00
2022-11-16T06:15:32.562Z,696.00
2022-11-16T06:16:05.059Z,711.00
2022-11-16T06:16:37.555Z,715.00
2022-11-16T06:17:10.065Z,719.00
2022-11-16T06:17:42.574Z,738.00
2022-11-16T06:18:15.062Z,748.00
2022-11-16T06:18:47.564Z,752.00
2022-11-16T06:19:20.069Z,752.00
2022-11-16T06:19:52.571Z,754.00
2022-11-16T06:20:25.060Z,754.00
2022-11-16T06:20:57.553Z,752.00
2022-11-16T06:21:30.065Z,751.00
2022-11-16T06:22:02.558Z,751.00
2022-11-16T06:22:35.064Z,753.00
2022-11-16T06:23:07.616Z,754.00
2022-11-16T06:23:37.564Z,756.00
2022-11-16T06:24:10.056Z,757.00
2022-11-16T06:24:42.546Z,760.00
2022-11-16T06:25:15.081Z,767.00
2022-11-16T06:25:47.571Z,775.00
2022-11-16T06:26:20.068Z,777.00
2022-11-16T06:26:50.082Z,779.00
2022-11-16T06:27:22.584Z,779.00
2022-11-16T06:27:55.073Z,776.00
2022-11-16T06:28:27.555Z,709.00
2022-11-16T06:29:00.044Z,690.00
2022-11-16T06:29:32.560Z,680.00
2022-11-16T06:30:05.048Z,670.00
2022-11-16T06:30:37.553Z,665.00
2022-11-16T06:31:10.058Z,664.00